sensor_id;sensor_type;location;lat;lon;timestamp;pressure;altitude;pressure_sealevel;temperature;humidity
16194;BME280;8204;53.582;10.080;2023-04-27T00:01:25;101539.84;;;7.72;100.00
16194;BME280;8204;53.582;10.080;2023-04-27T00:03:54;101538.91;;;7.73;100.00
16194;BME280;8204;53.582;10.080;2023-04-27T00:06:23;101545.91;;;7.72;100.00
16194;BME280;8204;53.582;10.080;2023-04-27T00:08:52;101547.66;;;7.72;100.00
16194;BME280;8204;53.582;10.080;2023-04-27T00:11:21;101541.28;;;7.65;100.00
16194;BME280;8204;53.582;10.080;2023-04-27T00:13:52;101533.00;;;7.60;100.00
16194;BME280;8204;53.582;10.080;2023-04-27T00:16:21;101529.56;;;7.59;100.00
16194;BME280;8204;53.582;10.080;2023-04-27T00:18:51;101526.38;;;7.56;100.00
16194;BME280;8204;53.582;10.080;2023-04-27T00:21:21;101510.00;;;7.54;100.00
16194;BME280;8204;53.582;10.080;2023-04-27T00:23:49;101515.22;;;7.54;100.00
16194;BME280;8204;53.582;10.080;2023-04-27T00:26:19;101504.53;;;7.57;100.00
16194;BME280;8204;53.582;10.080;2023-04-27T00:28:48;101498.03;;;7.51;100.00
16194;BME280;8204;53.582;10.080;2023-04-27T00:31:19;101495.66;;;7.48;100.00
16194;BME280;8204;53.582;10.080;2023-04-27T00:33:48;101494.59;;;7.51;100.00
16194;BME280;8204;53.582;10.080;2023-04-27T00:36:17;101486.66;;;7.52;100.00
16194;BME280;8204;53.582;10.080;2023-04-27T00:38:48;101475.66;;;7.49;100.00
16194;BME280;8204;53.582;10.080;2023-04-27T00:41:19;101476.72;;;7.46;100.00
16194;BME280;8204;53.582;10.080;2023-04-27T00:43:51;101479.44;;;7.45;100.00
16194;BME280;8204;53.582;10.080;2023-04-27T00:46:23;101476.34;;;7.40;100.00
16194;BME280;8204;53.582;10.080;2023-04-27T00:48:53;101483.09;;;7.42;100.00
16194;BME280;8204;53.582;10.080;2023-04-27T00:51:23;101472.69;;;7.42;100.00
16194;BME280;8204;53.582;10.080;2023-04-27T00:53:53;101467.34;;;7.33;100.00
16194;BME280;8204;53.582;10.080;2023-04-27T00:56:21;101469.47;;;7.39;100.00
16194;BME280;8204;53.582;10.080;2023-04-27T00:58:51;101471.38;;;7.37;100.00
16194;BME280;8204;53.582;10.080;2023-04-27T01:01:19;101472.44;;;7.34;100.00
16194;BME280;8204;53.582;10.080;2023-04-27T01:03:51;101463.81;;;7.34;100.00
16194;BME280;8204;53.582;10.080;2023-04-27T01:06:21;101466.19;;;7.26;100.00
16194;BME280;8204;53.582;10.080;2023-04-27T01:08:50;101464.50;;;7.25;100.00
16194;BME280;8204;53.582;10.080;2023-04-27T01:11:19;101462.75;;;7.25;100.00
16194;BME280;8204;53.582;10.080;2023-04-27T01:13:48;101463.56;;;7.26;100.00
16194;BME280;8204;53.582;10.080;2023-04-27T01:16:17;101466.19;;;7.26;100.00
16194;BME280;8204;53.582;10.080;2023-04-27T01:18:46;101462.63;;;7.27;100.00
16194;BME280;8204;53.582;10.080;2023-04-27T01:21:17;101463.34;;;7.29;100.00
16194;BME280;8204;53.582;10.080;2023-04-27T01:23:50;101459.22;;;7.26;100.00
16194;BME280;8204;53.582;10.080;2023-04-27T01:26:18;101473.41;;;7.22;100.00
16194;BME280;8204;53.582;10.080;2023-04-27T01:28:47;101469.03;;;7.23;100.00
16194;BME280;8204;53.582;10.080;2023-04-27T01:31:16;101465.47;;;7.24;100.00
16194;BME280;8204;53.582;10.080;2023-04-27T01:33:45;101472.47;;;7.23;100.00
16194;BME280;8204;53.582;10.080;2023-04-27T01:36:14;101472.94;;;7.18;100.00
16194;BME280;8204;53.582;10.080;2023-04-27T01:38:43;101464.31;;;7.17;100.00
16194;BME280;8204;53.582;10.080;2023-04-27T01:41:14;101479.34;;;7.14;100.00
16194;BME280;8204;53.582;10.080;2023-04-27T01:43:43;101470.22;;;7.08;100.00
16194;BME280;8204;53.582;10.080;2023-04-27T01:46:13;101474.50;;;7.09;100.00
16194;BME280;8204;53.582;10.080;2023-04-27T01:48:42;101469.50;;;7.06;100.00
16194;BME280;8204;53.582;10.080;2023-04-27T01:51:10;101472.38;;;7.03;100.00
16194;BME280;8204;53.582;10.080;2023-04-27T01:53:40;101470.91;;;6.99;100.00
16194;BME280;8204;53.582;10.080;2023-04-27T01:56:09;101467.84;;;6.94;100.00
16194;BME280;8204;53.582;10.080;2023-04-27T01:58:40;101460.63;;;6.98;100.00
16194;BME280;8204;53.582;10.080;2023-04-27T02:01:09;101453.75;;;6.97;100.00
16194;BME280;8204;53.582;10.080;2023-04-27T02:03:38;101472.00;;;6.97;100.00
16194;BME280;8204;53.582;10.080;2023-04-27T02:06:07;101472.34;;;6.92;100.00
16194;BME280;8204;53.582;10.080;2023-04-27T02:08:36;101481.09;;;6.91;100.00
16194;BME280;8204;53.582;10.080;2023-04-27T02:11:05;101487.97;;;6.92;100.00
16194;BME280;8204;53.582;10.080;2023-04-27T02:13:34;101490.69;;;6.91;100.00
16194;BME280;8204;53.582;10.080;2023-04-27T02:16:09;101490.56;;;6.92;100.00
16194;BME280;8204;53.582;10.080;2023-04-27T02:18:38;101483.00;;;6.89;100.00
16194;BME280;8204;53.582;10.080;2023-04-27T02:21:07;101494.59;;;6.85;100.00
16194;BME280;8204;53.582;10.080;2023-04-27T02:23:37;101495.19;;;6.89;100.00
16194;BME280;8204;53.582;10.080;2023-04-27T02:26:06;101500.31;;;6.90;100.00
16194;BME280;8204;53.582;10.080;2023-04-27T02:28:36;101508.59;;;6.84;100.00
16194;BME280;8204;53.582;10.080;2023-04-27T02:31:05;101512.34;;;6.80;100.00
16194;BME280;8204;53.582;10.080;2023-04-27T02:33:36;101516.63;;;6.81;100.00
16194;BME280;8204;53.582;10.080;2023-04-27T02:36:06;101507.63;;;6.85;100.00
16194;BME280;8204;53.582;10.080;2023-04-27T02:38:35;101510.00;;;6.77;100.00
16194;BME280;8204;53.582;10.080;2023-04-27T02:41:04;101501.00;;;6.81;100.00
16194;BME280;8204;53.582;10.080;2023-04-27T02:43:33;101497.69;;;6.90;100.00
16194;BME280;8204;53.582;10.080;2023-04-27T02:46:02;101507.88;;;6.93;100.00
16194;BME280;8204;53.582;10.080;2023-04-27T02:48:31;101503.25;;;6.97;100.00
16194;BME280;8204;53.582;10.080;2023-04-27T02:51:04;101507.41;;;6.99;100.00
16194;BME280;8204;53.582;10.080;2023-04-27T02:53:33;101520.44;;;6.99;100.00
16194;BME280;8204;53.582;10.080;2023-04-27T02:56:02;101518.66;;;7.00;100.00
16194;BME280;8204;53.582;10.080;2023-04-27T02:58:31;101520.91;;;7.04;100.00
16194;BME280;8204;53.582;10.080;2023-04-27T03:01:00;101523.63;;;7.03;100.00
16194;BME280;8204;53.582;10.080;2023-04-27T03:03:29;101524.22;;;7.06;100.00
16194;BME280;8204;53.582;10.080;2023-04-27T03:05:58;101517.34;;;7.05;100.00
16194;BME280;8204;53.582;10.080;2023-04-27T03:08:30;101529.44;;;7.06;100.00
16194;BME280;8204;53.582;10.080;2023-04-27T03:10:59;101524.47;;;7.03;100.00
16194;BME280;8204;53.582;10.080;2023-04-27T03:13:28;101517.59;;;7.02;100.00
16194;BME280;8204;53.582;10.080;2023-04-27T03:16:03;101518.66;;;7.00;100.00
16194;BME280;8204;53.582;10.080;2023-04-27T03:18:33;101524.94;;;6.97;100.00
16194;BME280;8204;53.582;10.080;2023-04-27T03:21:05;101521.75;;;6.94;100.00
16194;BME280;8204;53.582;10.080;2023-04-27T03:23:37;101520.16;;;6.91;100.00
16194;BME280;8204;53.582;10.080;2023-04-27T03:26:07;101508.13;;;6.90;100.00
16194;BME280;8204;53.582;10.080;2023-04-27T03:28:36;101520.28;;;6.90;100.00
16194;BME280;8204;53.582;10.080;2023-04-27T03:31:06;101513.34;;;6.90;100.00
16194;BME280;8204;53.582;10.080;2023-04-27T03:33:35;101517.22;;;6.85;100.00
16194;BME280;8204;53.582;10.080;2023-04-27T03:36:06;101523.25;;;6.85;100.00
16194;BME280;8204;53.582;10.080;2023-04-27T03:38:40;101520.88;;;6.82;100.00
16194;BME280;8204;53.582;10.080;2023-04-27T03:41:08;101522.78;;;6.80;100.00
16194;BME280;8204;53.582;10.080;2023-04-27T03:43:37;101523.22;;;6.74;100.00
16194;BME280;8204;53.582;10.080;2023-04-27T03:46:06;101526.09;;;6.71;100.00
16194;BME280;8204;53.582;10.080;2023-04-27T03:48:35;101521.09;;;6.68;100.00
16194;BME280;8204;53.582;10.080;2023-04-27T03:51:04;101517.88;;;6.65;100.00
16194;BME280;8204;53.582;10.080;2023-04-27T03:53:33;101524.16;;;6.62;100.00
16194;BME280;8204;53.582;10.080;2023-04-27T03:56:05;101512.91;;;6.62;100.00
16194;BME280;8204;53.582;10.080;2023-04-27T03:58:34;101522.50;;;6.61;100.00
16194;BME280;8204;53.582;10.080;2023-04-27T04:01:03;101521.88;;;6.58;100.00
16194;BME280;8204;53.582;10.080;2023-04-27T04:03:34;101522.00;;;6.56;100.00
16194;BME280;8204;53.582;10.080;2023-04-27T04:06:04;101515.25;;;6.54;100.00
16194;BME280;8204;53.582;10.080;2023-04-27T04:08:33;101509.47;;;6.51;100.00
16194;BME280;8204;53.582;10.080;2023-04-27T04:11:05;101503.31;;;6.52;100.00
16194;BME280;8204;53.582;10.080;2023-04-27T04:13:34;101501.03;;;6.47;100.00
16194;BME280;8204;53.582;10.080;2023-04-27T04:16:04;101493.13;;;6.49;100.00
16194;BME280;8204;53.582;10.080;2023-04-27T04:18:33;101496.78;;;6.46;100.00
16194;BME280;8204;53.582;10.080;2023-04-27T04:21:02;101501.38;;;6.43;100.00
16194;BME280;8204;53.582;10.080;2023-04-27T04:23:31;101496.91;;;6.45;100.00
16194;BME280;8204;53.582;10.080;2023-04-27T04:26:00;101487.19;;;6.47;100.00
16194;BME280;8204;53.582;10.080;2023-04-27T04:28:32;101488.84;;;6.48;100.00
16194;BME280;8204;53.582;10.080;2023-04-27T04:31:00;101495.50;;;6.52;100.00
16194;BME280;8204;53.582;10.080;2023-04-27T04:33:30;101489.09;;;6.55;100.00
16194;BME280;8204;53.582;10.080;2023-04-27T04:36:02;101509.00;;;6.56;100.00
16194;BME280;8204;53.582;10.080;2023-04-27T04:38:31;101504.72;;;6.55;100.00
16194;BME280;8204;53.582;10.080;2023-04-27T04:41:01;101506.59;;;6.53;100.00
16194;BME280;8204;53.582;10.080;2023-04-27T04:43:32;101503.19;;;6.53;100.00
16194;BME280;8204;53.582;10.080;2023-04-27T04:46:01;101507.09;;;6.58;100.00
16194;BME280;8204;53.582;10.080;2023-04-27T04:48:31;101511.25;;;6.61;100.00
16194;BME280;8204;53.582;10.080;2023-04-27T04:50:59;101518.94;;;6.62;100.00
16194;BME280;8204;53.582;10.080;2023-04-27T04:53:28;101496.66;;;6.58;100.00
16194;BME280;8204;53.582;10.080;2023-04-27T04:56:07;101496.13;;;6.66;100.00
16194;BME280;8204;53.582;10.080;2023-04-27T04:58:39;101509.75;;;6.69;100.00
16194;BME280;8204;53.582;10.080;2023-04-27T05:01:07;101513.63;;;6.75;100.00
16194;BME280;8204;53.582;10.080;2023-04-27T05:03:37;101514.75;;;6.83;100.00
16194;BME280;8204;53.582;10.080;2023-04-27T05:06:06;101525.75;;;6.87;100.00
16194;BME280;8204;53.582;10.080;2023-04-27T05:08:35;101528.72;;;6.93;100.00
16194;BME280;8204;53.582;10.080;2023-04-27T05:11:03;101531.78;;;6.98;100.00
16194;BME280;8204;53.582;10.080;2023-04-27T05:13:32;101542.22;;;6.98;100.00
16194;BME280;8204;53.582;10.080;2023-04-27T05:16:06;101545.19;;;7.05;100.00
16194;BME280;8204;53.582;10.080;2023-04-27T05:18:35;101535.72;;;7.04;100.00
16194;BME280;8204;53.582;10.080;2023-04-27T05:21:04;101543.66;;;7.02;100.00
16194;BME280;8204;53.582;10.080;2023-04-27T05:23:33;101538.44;;;7.02;100.00
16194;BME280;8204;53.582;10.080;2023-04-27T05:26:10;101538.06;;;6.96;100.00
16194;BME280;8204;53.582;10.080;2023-04-27T05:28:38;101536.06;;;6.99;100.00
16194;BME280;8204;53.582;10.080;2023-04-27T05:31:10;101541.59;;;6.95;100.00
16194;BME280;8204;53.582;10.080;2023-04-27T05:33:39;101546.22;;;6.91;100.00
16194;BME280;8204;53.582;10.080;2023-04-27T05:36:08;101538.06;;;6.96;100.00
16194;BME280;8204;53.582;10.080;2023-04-27T05:38:37;101539.38;;;6.90;100.00
16194;BME280;8204;53.582;10.080;2023-04-27T05:41:06;101540.66;;;6.96;100.00
16194;BME280;8204;53.582;10.080;2023-04-27T05:43:35;101536.78;;;6.90;100.00
16194;BME280;8204;53.582;10.080;2023-04-27T05:46:05;101532.50;;;7.00;100.00
16194;BME280;8204;53.582;10.080;2023-04-27T05:48:36;101531.22;;;7.06;100.00
16194;BME280;8204;53.582;10.080;2023-04-27T05:51:05;101541.06;;;7.13;100.00
16194;BME280;8204;53.582;10.080;2023-04-27T05:53:34;101552.06;;;7.17;100.00
16194;BME280;8204;53.582;10.080;2023-04-27T05:56:04;101567.22;;;7.22;100.00
16194;BME280;8204;53.582;10.080;2023-04-27T05:58:33;101561.31;;;7.31;100.00
16194;BME280;8204;53.582;10.080;2023-04-27T06:01:02;101569.84;;;7.33;100.00
16194;BME280;8204;53.582;10.080;2023-04-27T06:03:31;101569.97;;;7.32;100.00
16194;BME280;8204;53.582;10.080;2023-04-27T06:06:03;101574.47;;;7.41;100.00
16194;BME280;8204;53.582;10.080;2023-04-27T06:08:32;101588.94;;;7.45;100.00
16194;BME280;8204;53.582;10.080;2023-04-27T06:11:02;101594.06;;;7.46;100.00
16194;BME280;8204;53.582;10.080;2023-04-27T06:13:31;101598.53;;;7.44;100.00
16194;BME280;8204;53.582;10.080;2023-04-27T06:16:00;101609.31;;;7.51;100.00
16194;BME280;8204;53.582;10.080;2023-04-27T06:18:30;101602.69;;;7.58;100.00
16194;BME280;8204;53.582;10.080;2023-04-27T06:20:59;101609.91;;;7.54;100.00
16194;BME280;8204;53.582;10.080;2023-04-27T06:23:31;101627.81;;;7.59;100.00
16194;BME280;8204;53.582;10.080;2023-04-27T06:26:00;101621.88;;;7.57;100.00
16194;BME280;8204;53.582;10.080;2023-04-27T06:28:29;101633.50;;;7.64;100.00
16194;BME280;8204;53.582;10.080;2023-04-27T06:30:58;101629.00;;;7.55;100.00
16194;BME280;8204;53.582;10.080;2023-04-27T06:33:28;101643.84;;;7.65;100.00
16194;BME280;8204;53.582;10.080;2023-04-27T06:35:57;101646.66;;;7.73;100.00
16194;BME280;8204;53.582;10.080;2023-04-27T06:38:26;101657.47;;;7.80;100.00
16194;BME280;8204;53.582;10.080;2023-04-27T06:40:59;101667.06;;;7.79;100.00
16194;BME280;8204;53.582;10.080;2023-04-27T06:43:28;101668.84;;;7.90;100.00
16194;BME280;8204;53.582;10.080;2023-04-27T06:45:58;101665.88;;;7.94;100.00
16194;BME280;8204;53.582;10.080;2023-04-27T06:48:27;101675.63;;;7.92;100.00
16194;BME280;8204;53.582;10.080;2023-04-27T06:50:57;101686.16;;;7.91;100.00
16194;BME280;8204;53.582;10.080;2023-04-27T06:53:27;101679.03;;;7.93;100.00
16194;BME280;8204;53.582;10.080;2023-04-27T06:55:58;101679.03;;;8.03;100.00
16194;BME280;8204;53.582;10.080;2023-04-27T06:58:28;101680.72;;;8.15;100.00
16194;BME280;8204;53.582;10.080;2023-04-27T07:00:57;101672.88;;;8.15;100.00
16194;BME280;8204;53.582;10.080;2023-04-27T07:03:27;101670.88;;;8.30;100.00
16194;BME280;8204;53.582;10.080;2023-04-27T07:05:56;101674.97;;;8.43;100.00
16194;BME280;8204;53.582;10.080;2023-04-27T07:08:25;101674.25;;;8.52;100.00
16194;BME280;8204;53.582;10.080;2023-04-27T07:10:59;101687.31;;;8.52;100.00
16194;BME280;8204;53.582;10.080;2023-04-27T07:13:29;101693.34;;;8.53;100.00
16194;BME280;8204;53.582;10.080;2023-04-27T07:15:57;101700.00;;;8.57;100.00
16194;BME280;8204;53.582;10.080;2023-04-27T07:18:27;101714.75;;;8.47;100.00
16194;BME280;8204;53.582;10.080;2023-04-27T07:20:56;101711.50;;;8.54;100.00
16194;BME280;8204;53.582;10.080;2023-04-27T07:23:25;101726.72;;;8.60;100.00
16194;BME280;8204;53.582;10.080;2023-04-27T07:25:54;101728.94;;;8.65;100.00
16194;BME280;8204;53.582;10.080;2023-04-27T07:28:26;101740.19;;;8.76;100.00
16194;BME280;8204;53.582;10.080;2023-04-27T07:30:56;101737.19;;;8.91;100.00
16194;BME280;8204;53.582;10.080;2023-04-27T07:33:26;101730.84;;;9.05;100.00
16194;BME280;8204;53.582;10.080;2023-04-27T07:35:56;101740.31;;;9.17;100.00
16194;BME280;8204;53.582;10.080;2023-04-27T07:38:25;101750.56;;;9.29;100.00
16194;BME280;8204;53.582;10.080;2023-04-27T07:40:54;101745.69;;;9.36;100.00
16194;BME280;8204;53.582;10.080;2023-04-27T07:43:26;101750.91;;;9.36;100.00
16194;BME280;8204;53.582;10.080;2023-04-27T07:45:54;101757.53;;;9.40;100.00
16194;BME280;8204;53.582;10.080;2023-04-27T07:48:23;101761.22;;;9.48;100.00
16194;BME280;8204;53.582;10.080;2023-04-27T07:50:53;101760.78;;;9.52;100.00
16194;BME280;8204;53.582;10.080;2023-04-27T07:53:22;101769.50;;;9.53;100.00
16194;BME280;8204;53.582;10.080;2023-04-27T07:55:51;101768.78;;;9.51;100.00
16194;BME280;8204;53.582;10.080;2023-04-27T07:58:20;101772.19;;;9.62;100.00
16194;BME280;8204;53.582;10.080;2023-04-27T08:00:51;101774.84;;;9.72;100.00
16194;BME280;8204;53.582;10.080;2023-04-27T08:03:21;101783.97;;;9.57;100.00
16194;BME280;8204;53.582;10.080;2023-04-27T08:05:49;101789.66;;;9.62;100.00
16194;BME280;8204;53.582;10.080;2023-04-27T08:08:18;101778.38;;;9.61;100.00
16194;BME280;8204;53.582;10.080;2023-04-27T08:10:47;101788.19;;;9.48;100.00
16194;BME280;8204;53.582;10.080;2023-04-27T08:13:16;101781.56;;;9.44;100.00
16194;BME280;8204;53.582;10.080;2023-04-27T08:15:45;101784.84;;;9.46;100.00
16194;BME280;8204;53.582;10.080;2023-04-27T08:18:17;101785.44;;;9.50;100.00
16194;BME280;8204;53.582;10.080;2023-04-27T08:20:46;101782.31;;;9.56;100.00
16194;BME280;8204;53.582;10.080;2023-04-27T08:23:15;101791.44;;;9.61;100.00
16194;BME280;8204;53.582;10.080;2023-04-27T08:25:43;101782.06;;;9.79;100.00
16194;BME280;8204;53.582;10.080;2023-04-27T08:28:13;101784.34;;;9.93;100.00
16194;BME280;8204;53.582;10.080;2023-04-27T08:30:42;101780.28;;;10.00;100.00
16194;BME280;8204;53.582;10.080;2023-04-27T08:33:11;101784.09;;;10.17;100.00
16194;BME280;8204;53.582;10.080;2023-04-27T08:35:43;101775.47;;;10.25;100.00
16194;BME280;8204;53.582;10.080;2023-04-27T08:38:12;101776.31;;;10.35;100.00
16194;BME280;8204;53.582;10.080;2023-04-27T08:40:41;101781.28;;;10.29;100.00
16194;BME280;8204;53.582;10.080;2023-04-27T08:43:10;101780.38;;;10.19;100.00
16194;BME280;8204;53.582;10.080;2023-04-27T08:45:46;101787.38;;;10.09;100.00
16194;BME280;8204;53.582;10.080;2023-04-27T08:48:16;101773.34;;;10.10;100.00
16194;BME280;8204;53.582;10.080;2023-04-27T08:50:49;101776.81;;;10.20;100.00
16194;BME280;8204;53.582;10.080;2023-04-27T08:53:19;101782.38;;;10.26;100.00
16194;BME280;8204;53.582;10.080;2023-04-27T08:55:49;101774.94;;;10.31;100.00
16194;BME280;8204;53.582;10.080;2023-04-27T08:58:17;101773.06;;;10.43;100.00
16194;BME280;8204;53.582;10.080;2023-04-27T09:00:46;101766.47;;;10.58;100.00
16194;BME280;8204;53.582;10.080;2023-04-27T09:03:22;101766.22;;;10.70;100.00
16194;BME280;8204;53.582;10.080;2023-04-27T09:05:53;101761.81;;;10.80;100.00
16194;BME280;8204;53.582;10.080;2023-04-27T09:08:23;101766.53;;;10.95;100.00
16194;BME280;8204;53.582;10.080;2023-04-27T09:10:52;101764.63;;;10.97;100.00
16194;BME280;8204;53.582;10.080;2023-04-27T09:13:21;101771.13;;;11.03;100.00
16194;BME280;8204;53.582;10.080;2023-04-27T09:15:50;101776.91;;;10.97;100.00
16194;BME280;8204;53.582;10.080;2023-04-27T09:18:21;101772.34;;;10.89;100.00
16194;BME280;8204;53.582;10.080;2023-04-27T09:20:54;101776.59;;;10.81;100.00
16194;BME280;8204;53.582;10.080;2023-04-27T09:23:26;101795.47;;;10.66;100.00
16194;BME280;8204;53.582;10.080;2023-04-27T09:25:57;101799.56;;;10.59;100.00
16194;BME280;8204;53.582;10.080;2023-04-27T09:28:28;101789.66;;;10.62;100.00
16194;BME280;8204;53.582;10.080;2023-04-27T09:30:58;101791.59;;;10.70;100.00
16194;BME280;8204;53.582;10.080;2023-04-27T09:33:28;101791.34;;;10.73;100.00
16194;BME280;8204;53.582;10.080;2023-04-27T09:36:07;101782.25;;;10.77;100.00
16194;BME280;8204;53.582;10.080;2023-04-27T09:38:36;101780.66;;;10.94;100.00
16194;BME280;8204;53.582;10.080;2023-04-27T09:41:06;101778.16;;;11.12;100.00
16194;BME280;8204;53.582;10.080;2023-04-27T09:43:36;101756.66;;;11.27;100.00
16194;BME280;8204;53.582;10.080;2023-04-27T09:46:06;101774.31;;;11.35;100.00
16194;BME280;8204;53.582;10.080;2023-04-27T09:48:38;101767.13;;;11.18;100.00
16194;BME280;8204;53.582;10.080;2023-04-27T09:51:09;101761.03;;;11.17;100.00
16194;BME280;8204;53.582;10.080;2023-04-27T09:53:48;101770.72;;;11.07;100.00
16194;BME280;8204;53.582;10.080;2023-04-27T09:56:26;101771.38;;;11.09;100.00
16194;BME280;8204;53.582;10.080;2023-04-27T10:01:56;101765.47;;;11.26;100.00
16194;BME280;8204;53.582;10.080;2023-04-27T10:04:35;101757.59;;;11.26;100.00
16194;BME280;8204;53.582;10.080;2023-04-27T10:07:13;101760.22;;;11.26;100.00
16194;BME280;8204;53.582;10.080;2023-04-27T10:09:45;101767.13;;;11.27;100.00
16194;BME280;8204;53.582;10.080;2023-04-27T10:12:16;101768.50;;;11.41;100.00
16194;BME280;8204;53.582;10.080;2023-04-27T10:14:50;101768.25;;;11.53;96.85
16194;BME280;8204;53.582;10.080;2023-04-27T10:17:23;101772.53;;;11.64;93.23
16194;BME280;8204;53.582;10.080;2023-04-27T10:19:55;101763.56;;;11.57;93.41
16194;BME280;8204;53.582;10.080;2023-04-27T10:22:36;101762.72;;;11.56;96.33
16194;BME280;8204;53.582;10.080;2023-04-27T10:25:15;101768.81;;;11.66;97.41
16194;BME280;8204;53.582;10.080;2023-04-27T10:27:48;101781.22;;;11.64;98.79
16194;BME280;8204;53.582;10.080;2023-04-27T10:30:18;101781.22;;;11.64;97.98
16194;BME280;8204;53.582;10.080;2023-04-27T10:32:52;101773.75;;;11.69;96.53
16194;BME280;8204;53.582;10.080;2023-04-27T10:35:22;101773.75;;;11.78;97.65
16194;BME280;8204;53.582;10.080;2023-04-27T10:38:09;101784.25;;;11.78;97.52
16194;BME280;8204;53.582;10.080;2023-04-27T10:40:40;101777.16;;;11.98;97.33
16194;BME280;8204;53.582;10.080;2023-04-27T10:43:10;101778.41;;;11.94;90.65
16194;BME280;8204;53.582;10.080;2023-04-27T10:45:40;101778.13;;;11.97;90.34
16194;BME280;8204;53.582;10.080;2023-04-27T10:48:11;101773.44;;;11.91;91.75
16194;BME280;8204;53.582;10.080;2023-04-27T10:50:41;101782.13;;;11.91;94.77
16194;BME280;8204;53.582;10.080;2023-04-27T10:53:15;101781.91;;;11.85;96.63
16194;BME280;8204;53.582;10.080;2023-04-27T10:55:44;101783.41;;;11.87;96.32
16194;BME280;8204;53.582;10.080;2023-04-27T10:58:13;101780.94;;;11.86;94.87
16194;BME280;8204;53.582;10.080;2023-04-27T11:00:42;101782.28;;;11.90;93.02
16194;BME280;8204;53.582;10.080;2023-04-27T11:03:13;101780.34;;;12.01;93.70
16194;BME280;8204;53.582;10.080;2023-04-27T11:05:44;101785.72;;;12.00;90.94
16194;BME280;8204;53.582;10.080;2023-04-27T11:08:17;101778.09;;;12.06;91.29
16194;BME280;8204;53.582;10.080;2023-04-27T11:10:48;101781.66;;;12.15;91.28
16194;BME280;8204;53.582;10.080;2023-04-27T11:13:19;101790.50;;;12.14;90.00
16194;BME280;8204;53.582;10.080;2023-04-27T11:15:49;101782.22;;;12.09;88.44
16194;BME280;8204;53.582;10.080;2023-04-27T11:18:21;101796.06;;;12.11;91.27
16194;BME280;8204;53.582;10.080;2023-04-27T11:20:52;101786.69;;;12.08;89.22
16194;BME280;8204;53.582;10.080;2023-04-27T11:23:24;101788.47;;;12.08;88.84
16194;BME280;8204;53.582;10.080;2023-04-27T11:25:53;101803.81;;;12.03;90.32
16194;BME280;8204;53.582;10.080;2023-04-27T11:28:23;101790.69;;;12.03;93.17
16194;BME280;8204;53.582;10.080;2023-04-27T11:30:55;101790.50;;;12.14;95.28
16194;BME280;8204;53.582;10.080;2023-04-27T11:33:24;101784.69;;;12.20;96.56
16194;BME280;8204;53.582;10.080;2023-04-27T11:35:53;101785.28;;;12.40;99.08
16194;BME280;8204;53.582;10.080;2023-04-27T11:38:25;101790.44;;;12.33;100.00
16194;BME280;8204;53.582;10.080;2023-04-27T11:41:03;101778.47;;;12.21;100.00
16194;BME280;8204;53.582;10.080;2023-04-27T11:43:32;101791.81;;;12.37;100.00
16194;BME280;8204;53.582;10.080;2023-04-27T11:46:02;101787.41;;;12.64;100.00
16194;BME280;8204;53.582;10.080;2023-04-27T11:48:31;101787.25;;;12.65;100.00
16194;BME280;8204;53.582;10.080;2023-04-27T11:51:02;101783.06;;;12.72;97.73
16194;BME280;8204;53.582;10.080;2023-04-27T11:53:35;101789.63;;;12.86;95.38
16194;BME280;8204;53.582;10.080;2023-04-27T11:56:08;101788.63;;;12.96;96.96
16194;BME280;8204;53.582;10.080;2023-04-27T11:58:38;101787.28;;;12.83;95.40
16194;BME280;8204;53.582;10.080;2023-04-27T12:01:07;101787.16;;;12.84;96.47
16194;BME280;8204;53.582;10.080;2023-04-27T12:03:36;101787.16;;;12.84;93.94
16194;BME280;8204;53.582;10.080;2023-04-27T12:06:12;101788.84;;;13.03;94.85
16194;BME280;8204;53.582;10.080;2023-04-27T12:08:43;101789.47;;;13.14;96.38
16194;BME280;8204;53.582;10.080;2023-04-27T12:11:12;101784.38;;;13.30;94.49
16194;BME280;8204;53.582;10.080;2023-04-27T12:13:41;101782.56;;;13.48;93.67
16194;BME280;8204;53.582;10.080;2023-04-27T12:16:09;101777.41;;;13.64;94.63
16194;BME280;8204;53.582;10.080;2023-04-27T12:18:39;101779.06;;;13.65;93.27
16194;BME280;8204;53.582;10.080;2023-04-27T12:21:08;101784.41;;;13.55;93.26
16194;BME280;8204;53.582;10.080;2023-04-27T12:23:36;101793.22;;;13.64;93.71
16194;BME280;8204;53.582;10.080;2023-04-27T12:26:09;101783.44;;;13.56;94.96
16194;BME280;8204;53.582;10.080;2023-04-27T12:28:38;101787.91;;;13.56;96.03
16194;BME280;8204;53.582;10.080;2023-04-27T12:31:07;101792.03;;;13.41;95.00
16194;BME280;8204;53.582;10.080;2023-04-27T12:33:36;101786.84;;;13.31;93.36
16194;BME280;8204;53.582;10.080;2023-04-27T12:36:05;101792.41;;;13.28;95.20
16194;BME280;8204;53.582;10.080;2023-04-27T12:38:35;101791.50;;;13.20;94.21
16194;BME280;8204;53.582;10.080;2023-04-27T12:41:09;101797.38;;;13.14;93.55
16194;BME280;8204;53.582;10.080;2023-04-27T12:43:39;101797.00;;;13.09;93.43
16194;BME280;8204;53.582;10.080;2023-04-27T12:46:09;101805.34;;;13.05;94.12
16194;BME280;8204;53.582;10.080;2023-04-27T12:48:38;101802.16;;;13.01;93.33
16194;BME280;8204;53.582;10.080;2023-04-27T12:51:06;101807.88;;;12.97;94.73
16194;BME280;8204;53.582;10.080;2023-04-27T12:53:35;101808.19;;;12.94;93.54
16194;BME280;8204;53.582;10.080;2023-04-27T12:56:05;101808.19;;;12.94;96.37
16194;BME280;8204;53.582;10.080;2023-04-27T12:58:36;101809.91;;;13.03;94.73
16194;BME280;8204;53.582;10.080;2023-04-27T13:01:07;101804.44;;;13.13;94.70
16194;BME280;8204;53.582;10.080;2023-04-27T13:03:40;101818.63;;;13.20;95.13
16194;BME280;8204;53.582;10.080;2023-04-27T13:06:09;101810.06;;;13.01;90.00